createdAt,value
2022-07-26T00:01:20.717Z,96909.03
2022-07-26T00:03:49.191Z,96923.03
2022-07-26T00:06:16.101Z,96914.34
2022-07-26T00:08:46.609Z,96916.09
2022-07-26T00:11:13.141Z,96916.09
2022-07-26T00:13:39.725Z,96922.50
2022-07-26T00:16:06.762Z,96918.78
2022-07-26T00:18:33.503Z,96917.41
2022-07-26T00:21:18.755Z,96916.09
2022-07-26T00:23:45.374Z,96917.88
2022-07-26T00:26:12.003Z,96923.72
2022-07-26T00:28:39.289Z,96921.22
2022-07-26T00:31:05.941Z,96913.63
2022-07-26T00:33:32.545Z,96908.22
2022-07-26T00:35:59.119Z,96906.38
2022-07-26T00:38:25.760Z,96915.56
2022-07-26T00:40:52.945Z,96913.66
2022-07-26T00:43:19.553Z,96914.09
2022-07-26T00:45:46.201Z,96924.63
2022-07-26T00:48:12.823Z,96928.88
2022-07-26T00:50:39.440Z,96926.56
2022-07-26T00:53:06.163Z,96920.63
2022-07-26T00:55:32.887Z,96933.50
2022-07-26T00:58:01.289Z,96931.88
2022-07-26T01:00:28.470Z,96933.09
2022-07-26T01:02:55.998Z,96942.13
2022-07-26T01:05:23.477Z,96939.47
2022-07-26T01:07:50.133Z,96937.16
2022-07-26T01:10:16.720Z,96931.94
2022-07-26T01:12:43.491Z,96938.19
2022-07-26T01:15:11.318Z,96937.88
2022-07-26T01:17:38.297Z,96937.06
2022-07-26T01:20:07.131Z,96935.81
2022-07-26T01:22:33.823Z,96936.16
2022-07-26T01:25:00.552Z,96933.59
2022-07-26T01:27:32.054Z,96941.09
2022-07-26T01:30:00.509Z,96935.28
2022-07-26T01:32:27.050Z,96930.50
2022-07-26T01:34:53.618Z,96929.22
2022-07-26T01:37:20.146Z,96935.69
2022-07-26T01:39:46.664Z,96928.94
2022-07-26T01:42:13.241Z,96929.13
2022-07-26T01:44:40.588Z,96937.34
2022-07-26T01:47:07.159Z,96934.88
2022-07-26T01:49:33.684Z,96934.66
2022-07-26T01:52:00.305Z,96943.09
2022-07-26T01:54:26.972Z,96946.94
2022-07-26T01:56:53.546Z,96955.91
2022-07-26T01:59:20.086Z,96962.59
2022-07-26T02:01:46.888Z,96956.09
2022-07-26T02:04:33.486Z,96957.94
2022-07-26T02:07:00.151Z,96960.03
2022-07-26T02:09:27.864Z,96959.09
2022-07-26T02:11:58.553Z,96954.56
2022-07-26T02:14:25.463Z,96958.03
2022-07-26T02:16:59.694Z,96962.91
2022-07-26T02:19:27.878Z,96972.41
2022-07-26T02:21:54.724Z,96967.81
2022-07-26T02:24:21.639Z,96967.22
2022-07-26T02:26:48.218Z,96967.53
2022-07-26T02:29:14.741Z,96964.75
2022-07-26T02:31:41.382Z,96962.81
2022-07-26T02:34:15.192Z,96964.88
2022-07-26T02:36:41.804Z,96977.25
2022-07-26T02:39:08.462Z,96973.53
2022-07-26T02:41:35.071Z,96978.47
2022-07-26T02:44:01.637Z,96973.09
2022-07-26T02:46:28.249Z,96981.78
2022-07-26T02:48:54.940Z,96979.88
2022-07-26T02:51:21.653Z,96985.63
2022-07-26T02:53:48.187Z,96979.13
2022-07-26T02:56:14.724Z,96976.16
2022-07-26T02:58:41.281Z,96978.00
2022-07-26T03:01:07.976Z,96976.19
2022-07-26T03:03:36.467Z,96982.09
2022-07-26T03:06:04.904Z,96987.44
2022-07-26T03:08:31.517Z,96986.63
2022-07-26T03:10:58.145Z,96979.09
2022-07-26T03:13:24.692Z,96982.09
2022-07-26T03:15:51.296Z,96966.78
2022-07-26T03:18:17.942Z,96970.47
2022-07-26T03:20:44.659Z,96981.75
2022-07-26T03:23:11.202Z,96985.00
2022-07-26T03:25:38.244Z,96976.78
2022-07-26T03:28:05.278Z,96984.34
2022-07-26T03:30:31.996Z,96975.59
2022-07-26T03:32:58.552Z,96975.75
2022-07-26T03:35:25.898Z,96983.72
2022-07-26T03:37:52.606Z,96982.94
2022-07-26T03:40:19.560Z,96979.50
2022-07-26T03:42:47.248Z,96983.56
2022-07-26T03:45:15.374Z,96974.97
2022-07-26T03:47:42.558Z,96979.84
2022-07-26T03:50:09.718Z,96989.44
2022-07-26T03:52:36.288Z,96988.41
2022-07-26T03:55:22.885Z,96994.50
2022-07-26T03:57:49.488Z,96990.97
2022-07-26T04:00:16.227Z,96992.34
2022-07-26T04:02:42.898Z,96989.38
2022-07-26T04:05:09.837Z,96999.91
2022-07-26T04:07:51.491Z,96989.31
2022-07-26T04:10:20.722Z,96995.31
2022-07-26T04:12:47.302Z,96992.22
2022-07-26T04:15:16.143Z,96994.59
2022-07-26T04:17:43.027Z,96999.25
2022-07-26T04:20:11.106Z,96991.78
2022-07-26T04:22:38.975Z,96992.22
2022-07-26T04:25:06.798Z,96988.53
2022-07-26T04:27:33.821Z,96982.78
2022-07-26T04:30:00.488Z,96985.59
2022-07-26T04:32:27.104Z,96993.47
2022-07-26T04:34:53.726Z,96993.69
2022-07-26T04:37:20.246Z,97004.66
2022-07-26T04:39:50.423Z,96994.28
2022-07-26T04:42:19.815Z,96998.31
2022-07-26T04:44:46.397Z,96990.22
2022-07-26T04:47:12.956Z,96987.31
2022-07-26T04:49:40.707Z,96992.13
2022-07-26T04:52:07.275Z,96998.50
2022-07-26T04:54:33.847Z,96998.84
2022-07-26T04:57:00.456Z,96994.91
2022-07-26T04:59:27.011Z,97000.94
2022-07-26T05:01:53.664Z,96999.53
2022-07-26T05:04:20.247Z,96998.16
2022-07-26T05:06:46.780Z,97005.81
2022-07-26T05:09:13.416Z,96994.78
2022-07-26T05:11:40.047Z,96996.72
2022-07-26T05:14:06.922Z,96997.75
2022-07-26T05:16:33.666Z,97012.47
2022-07-26T05:19:05.771Z,97010.84
2022-07-26T05:21:32.292Z,97008.03
2022-07-26T05:23:58.927Z,97009.75
2022-07-26T05:26:25.468Z,97016.38
2022-07-26T05:28:52.030Z,97012.63
2022-07-26T05:31:18.609Z,97012.63
2022-07-26T05:33:45.221Z,97011.19
2022-07-26T05:36:11.821Z,97021.03
2022-07-26T05:38:38.776Z,97006.78
2022-07-26T05:41:05.809Z,97014.09
2022-07-26T05:43:40.917Z,97014.09
2022-07-26T05:46:09.819Z,97013.44
2022-07-26T05:48:37.108Z,97025.78
2022-07-26T05:51:04.103Z,97016.47
2022-07-26T05:53:30.638Z,97022.09
2022-07-26T05:56:12.312Z,97024.13
2022-07-26T05:58:38.888Z,97030.28
2022-07-26T06:01:05.721Z,97032.69
2022-07-26T06:03:32.409Z,97029.66
2022-07-26T06:05:59.147Z,97027.41
2022-07-26T06:08:26.720Z,97028.75
2022-07-26T06:10:54.394Z,97026.28
2022-07-26T06:13:20.988Z,97024.97
2022-07-26T06:15:47.764Z,97023.88
2022-07-26T06:18:14.466Z,97031.47
2022-07-26T06:20:42.824Z,97030.41
2022-07-26T06:23:09.660Z,97036.25
2022-07-26T06:25:36.402Z,97039.66
2022-07-26T06:28:04.783Z,97033.13
2022-07-26T06:30:31.476Z,97046.38
2022-07-26T06:32:58.082Z,97048.38
2022-07-26T06:35:24.663Z,97044.31
2022-07-26T06:37:51.313Z,97051.69
2022-07-26T06:40:17.936Z,97054.34
2022-07-26T06:42:44.495Z,97052.56
2022-07-26T06:45:11.601Z,97054.13
2022-07-26T06:47:38.258Z,97054.25
2022-07-26T06:50:05.305Z,97052.69
2022-07-26T06:52:32.913Z,97060.91
2022-07-26T06:55:00.193Z,97057.34
2022-07-26T06:57:27.118Z,97056.31
2022-07-26T06:59:53.760Z,97068.72
2022-07-26T07:02:20.327Z,97068.16
2022-07-26T07:04:46.987Z,97069.53
2022-07-26T07:07:13.672Z,97068.03
2022-07-26T07:09:41.211Z,97066.13
2022-07-26T07:12:10.223Z,97068.47
2022-07-26T07:14:37.550Z,97070.13
2022-07-26T07:17:10.348Z,97082.47
2022-07-26T07:19:39.897Z,97072.81
2022-07-26T07:22:06.678Z,97078.16
2022-07-26T07:24:33.216Z,97074.59
2022-07-26T07:27:01.290Z,97071.91
2022-07-26T07:29:27.928Z,97086.06
2022-07-26T07:31:55.985Z,97092.09
2022-07-26T07:34:23.959Z,97094.75
2022-07-26T07:36:50.885Z,97091.19
2022-07-26T07:39:17.931Z,97090.25
2022-07-26T07:41:48.002Z,97083.94
2022-07-26T07:44:15.016Z,97084.91
2022-07-26T07:46:41.645Z,97083.31
2022-07-26T07:49:08.703Z,97088.88
2022-07-26T07:51:36.202Z,97083.94
2022-07-26T07:54:05.589Z,97094.41
2022-07-26T07:56:33.112Z,97090.44
2022-07-26T07:58:59.748Z,97088.88
2022-07-26T08:01:40.366Z,97094.84
2022-07-26T08:04:08.337Z,97097.09
2022-07-26T08:06:35.184Z,97087.69
2022-07-26T08:09:03.818Z,97090.69
2022-07-26T08:11:32.176Z,97096.50
2022-07-26T08:14:00.715Z,97086.69
2022-07-26T08:16:27.437Z,97097.44
2022-07-26T08:18:57.413Z,97095.09
2022-07-26T08:21:27.581Z,97096.91
2022-07-26T08:23:56.141Z,97093.72
2022-07-26T08:26:22.726Z,97091.41
2022-07-26T08:28:58.362Z,97092.53
2022-07-26T08:31:26.832Z,97088.28
2022-07-26T08:33:53.463Z,97099.38
2022-07-26T08:36:20.086Z,97084.28
2022-07-26T08:38:47.747Z,97098.09
2022-07-26T08:41:15.020Z,97100.97
2022-07-26T08:43:51.095Z,97089.91
2022-07-26T08:46:26.079Z,97100.50
2022-07-26T08:48:53.995Z,97099.38
2022-07-26T08:51:22.956Z,97104.06
2022-07-26T08:53:50.847Z,97105.28
2022-07-26T08:56:17.444Z,97094.16
2022-07-26T08:58:44.928Z,97108.25
2022-07-26T09:01:13.071Z,97111.03
2022-07-26T09:03:41.311Z,97108.13
2022-07-26T09:06:19.518Z,97103.13
2022-07-26T09:08:50.454Z,97105.44
2022-07-26T09:11:33.188Z,97113.38
2022-07-26T09:14:01.931Z,97110.28
2022-07-26T09:16:29.678Z,97110.75
2022-07-26T09:18:57.308Z,97116.47
2022-07-26T09:21:42.262Z,97112.22
2022-07-26T09:24:10.102Z,97125.50
2022-07-26T09:26:36.673Z,97128.22
2022-07-26T09:29:12.349Z,97124.53
2022-07-26T09:31:40.236Z,97125.31
2022-07-26T09:34:07.737Z,97127.81
2022-07-26T09:36:53.387Z,97131.81
2022-07-26T09:39:32.753Z,97121.66
2022-07-26T09:42:27.295Z,97128.63
2022-07-26T09:44:56.258Z,97133.25
2022-07-26T09:47:23.599Z,97135.91
2022-07-26T09:49:50.290Z,97130.53
2022-07-26T09:52:21.565Z,97122.38
2022-07-26T09:54:49.573Z,97122.81
2022-07-26T09:57:20.722Z,97119.03
2022-07-26T09:59:47.380Z,97128.56
2022-07-26T10:02:14.245Z,97129.56
2022-07-26T10:04:44.400Z,97125.09
2022-07-26T10:07:11.046Z,97129.19
2022-07-26T10:09:44.165Z,97131.22
2022-07-26T10:12:14.338Z,97121.53
2022-07-26T10:14:45.829Z,97133.16
2022-07-26T10:17:31.315Z,97130.19
2022-07-26T10:20:02.333Z,97128.09
2022-07-26T10:22:36.390Z,97125.28
2022-07-26T10:25:18.224Z,97128.28
2022-07-26T10:27:50.052Z,97132.81
2022-07-26T10:30:19.658Z,97132.22
2022-07-26T10:32:52.394Z,97132.56
2022-07-26T10:35:32.685Z,97133.81
2022-07-26T10:38:01.213Z,97129.72
2022-07-26T10:40:31.204Z,97130.34
2022-07-26T10:46:16.150Z,97126.41
2022-07-26T10:48:56.135Z,97127.34
2022-07-26T10:51:27.701Z,97133.56
2022-07-26T10:54:07.376Z,97124.59
2022-07-26T10:56:34.409Z,97124.94
2022-07-26T10:59:02.040Z,97130.13
2022-07-26T11:01:45.353Z,97136.16
2022-07-26T11:04:22.585Z,97127.81
2022-07-26T11:06:49.378Z,97131.53
2022-07-26T11:09:17.366Z,97142.94
2022-07-26T11:11:46.990Z,97135.91
2022-07-26T11:14:16.234Z,97128.47
2022-07-26T11:16:45.111Z,97142.44
2022-07-26T11:19:14.470Z,97127.41
2022-07-26T11:21:41.745Z,97128.56
2022-07-26T11:24:09.277Z,97141.19
2022-07-26T11:26:44.013Z,97144.59
2022-07-26T11:29:10.784Z,97152.34
2022-07-26T11:31:50.582Z,97152.03
2022-07-26T11:34:26.087Z,97173.63
2022-07-26T11:36:55.500Z,97174.13
2022-07-26T11:39:33.939Z,97175.41
2022-07-26T11:42:05.044Z,97165.00
2022-07-26T11:44:31.737Z,97164.75
2022-07-26T11:46:58.884Z,97167.91
2022-07-26T11:52:24.932Z,97168.69
2022-07-26T11:54:53.008Z,97165.31
2022-07-26T11:57:19.787Z,97169.56
2022-07-26T11:59:47.975Z,97175.25
2022-07-26T12:02:15.211Z,97170.72
2022-07-26T12:04:43.778Z,97171.41
2022-07-26T12:07:15.499Z,97168.66
2022-07-26T12:09:47.477Z,97173.00
2022-07-26T12:12:28.144Z,97171.69
2022-07-26T12:14:58.912Z,97171.31
2022-07-26T12:17:25.647Z,97172.63
2022-07-26T12:19:52.407Z,97161.50
2022-07-26T12:22:20.586Z,97171.22
2022-07-26T12:24:59.187Z,97165.50
2022-07-26T12:27:32.957Z,97153.47
2022-07-26T12:30:02.546Z,97163.84
2022-07-26T12:32:36.020Z,97167.59
2022-07-26T12:35:10.125Z,97163.13
2022-07-26T12:37:47.273Z,97165.38
2022-07-26T12:40:19.669Z,97183.81
2022-07-26T12:42:55.901Z,97198.94
2022-07-26T12:45:27.795Z,97186.88
2022-07-26T12:47:55.932Z,97193.31
2022-07-26T12:50:25.250Z,97199.66
2022-07-26T12:52:52.618Z,97196.88
2022-07-26T12:55:21.588Z,97204.91
2022-07-26T12:57:49.597Z,97200.06
2022-07-26T13:00:22.626Z,97193.72
2022-07-26T13:02:49.154Z,97192.16
2022-07-26T13:05:15.888Z,97185.41
2022-07-26T13:07:42.670Z,97173.19
2022-07-26T13:12:56.612Z,97176.25
2022-07-26T13:15:23.235Z,97171.94
2022-07-26T13:18:02.388Z,97171.25
2022-07-26T13:20:29.010Z,97181.88
2022-07-26T13:22:55.553Z,97174.72
2022-07-26T13:25:22.118Z,97183.44
2022-07-26T13:27:50.453Z,97162.16
2022-07-26T13:30:17.002Z,97159.91
2022-07-26T13:32:43.548Z,97170.94
2022-07-26T13:35:10.256Z,97176.69
2022-07-26T13:37:38.189Z,97178.59
2022-07-26T13:40:05.669Z,97176.06
2022-07-26T13:42:32.236Z,97170.16
2022-07-26T13:44:58.808Z,97165.16
2022-07-26T13:47:25.333Z,97178.00
2022-07-26T13:49:51.915Z,97176.19
2022-07-26T13:52:18.517Z,97177.84
2022-07-26T13:54:45.107Z,97168.56
2022-07-26T13:57:11.635Z,97176.97
2022-07-26T13:59:38.243Z,97173.13
2022-07-26T14:02:05.207Z,97171.97
2022-07-26T14:04:31.903Z,97173.75
2022-07-26T14:06:58.506Z,97183.59
2022-07-26T14:09:25.101Z,97182.25
2022-07-26T14:11:52.433Z,97188.19
2022-07-26T14:14:19.014Z,97188.69
2022-07-26T14:16:49.422Z,97197.16
2022-07-26T14:19:16.599Z,97199.53
2022-07-26T14:21:48.926Z,97196.72
2022-07-26T14:24:26.452Z,97184.84
2022-07-26T14:26:56.888Z,97190.03
2022-07-26T14:29:26.052Z,97200.47
2022-07-26T14:31:53.007Z,97199.13
2022-07-26T14:34:19.722Z,97199.28
2022-07-26T14:36:46.296Z,97201.09
2022-07-26T14:39:12.859Z,97200.84
2022-07-26T14:41:39.493Z,97203.38
2022-07-26T14:44:06.540Z,97212.31
2022-07-26T14:46:33.244Z,97212.13
2022-07-26T14:48:59.909Z,97210.47
2022-07-26T14:51:26.612Z,97205.63
2022-07-26T14:53:53.201Z,97204.69
2022-07-26T14:56:19.855Z,97197.88
2022-07-26T14:58:46.378Z,97203.28
2022-07-26T15:01:13.039Z,97188.22
2022-07-26T15:03:39.648Z,97196.03
2022-07-26T15:06:06.232Z,97202.41
2022-07-26T15:08:32.793Z,97202.31
2022-07-26T15:10:59.430Z,97194.72
2022-07-26T15:13:26.020Z,97201.34
2022-07-26T15:15:52.817Z,97188.97
2022-07-26T15:18:19.361Z,97189.56
2022-07-26T15:20:45.923Z,97188.53
2022-07-26T15:23:15.245Z,97185.31
2022-07-26T15:25:41.853Z,97182.00
2022-07-26T15:28:08.430Z,97190.47
2022-07-26T15:30:35.508Z,97190.53
2022-07-26T15:33:02.283Z,97188.34
2022-07-26T15:35:29.968Z,97194.22
2022-07-26T15:37:56.819Z,97197.34
2022-07-26T15:40:23.501Z,97198.31
2022-07-26T15:42:52.149Z,97195.72
2022-07-26T15:45:22.070Z,97198.47
2022-07-26T15:48:01.293Z,97197.03
2022-07-26T15:50:34.862Z,97201.28
2022-07-26T15:53:01.568Z,97201.47
2022-07-26T15:55:28.250Z,97191.28
2022-07-26T15:57:54.944Z,97200.84
2022-07-26T16:00:21.521Z,97205.78
2022-07-26T16:02:48.313Z,97197.69
2022-07-26T16:05:14.946Z,97204.44
2022-07-26T16:07:42.140Z,97202.13
2022-07-26T16:10:10.303Z,97199.34
2022-07-26T16:12:36.861Z,97206.34
2022-07-26T16:15:04.567Z,97206.31
2022-07-26T16:17:31.197Z,97198.84
2022-07-26T16:19:57.833Z,97199.81
2022-07-26T16:22:24.584Z,97193.06
2022-07-26T16:24:51.138Z,97199.13
2022-07-26T16:27:17.771Z,97194.94
2022-07-26T16:29:45.988Z,97203.91
2022-07-26T16:32:15.759Z,97203.22
2022-07-26T16:34:42.329Z,97201.44
2022-07-26T16:37:08.925Z,97201.25
2022-07-26T16:39:35.625Z,97205.97
2022-07-26T16:42:06.873Z,97210.97
2022-07-26T16:44:34.005Z,97217.47
2022-07-26T16:47:00.718Z,97211.53
2022-07-26T16:49:27.313Z,97221.41
2022-07-26T16:51:53.914Z,97221.94
2022-07-26T16:54:21.026Z,97227.63
2022-07-26T16:56:47.670Z,97238.75
2022-07-26T16:59:14.789Z,97239.81
2022-07-26T17:01:41.737Z,97239.31
2022-07-26T17:04:08.359Z,97239.03
2022-07-26T17:06:34.907Z,97239.13
2022-07-26T17:09:01.473Z,97239.59
2022-07-26T17:11:28.050Z,97236.91
2022-07-26T17:13:54.670Z,97237.03
2022-07-26T17:16:24.362Z,97238.06
2022-07-26T17:18:51.655Z,97244.13
2022-07-26T17:21:18.254Z,97232.53
2022-07-26T17:23:44.802Z,97237.22
2022-07-26T17:26:11.440Z,97227.22
2022-07-26T17:28:38.139Z,97241.16
2022-07-26T17:31:04.757Z,97240.22
2022-07-26T17:33:31.384Z,97247.28
2022-07-26T17:36:02.142Z,97246.78
2022-07-26T17:38:31.129Z,97238.53
2022-07-26T17:40:57.702Z,97242.25
2022-07-26T17:43:25.295Z,97252.13
2022-07-26T17:46:03.895Z,97245.16
2022-07-26T17:48:30.524Z,97243.72
2022-07-26T17:50:57.145Z,97246.53
2022-07-26T17:53:34.723Z,97241.13
2022-07-26T17:56:02.242Z,97245.22
2022-07-26T17:58:28.825Z,97252.41
2022-07-26T18:00:55.510Z,97245.16
2022-07-26T18:03:23.149Z,97245.28
2022-07-26T18:05:50.327Z,97246.19
2022-07-26T18:08:17.127Z,97250.09
2022-07-26T18:10:47.585Z,97247.75
2022-07-26T18:13:17.719Z,97250.84
2022-07-26T18:15:44.354Z,97257.63
2022-07-26T18:18:11.050Z,97253.16
2022-07-26T18:20:37.702Z,97253.56
2022-07-26T18:23:04.398Z,97253.19
2022-07-26T18:25:30.939Z,97256.59
2022-07-26T18:27:57.560Z,97255.41
2022-07-26T18:30:24.214Z,97254.56
2022-07-26T18:32:50.920Z,97248.44
2022-07-26T18:35:17.521Z,97247.63
2022-07-26T18:37:44.079Z,97253.19
2022-07-26T18:40:10.814Z,97253.94
2022-07-26T18:42:37.900Z,97253.56
2022-07-26T18:45:04.899Z,97265.03
2022-07-26T18:47:31.544Z,97254.09
2022-07-26T18:49:58.132Z,97256.66
2022-07-26T18:52:28.314Z,97254.09
2022-07-26T18:54:59.474Z,97250.47
2022-07-26T18:57:26.052Z,97245.03
2022-07-26T18:59:52.595Z,97251.16
2022-07-26T19:02:19.236Z,97244.84
2022-07-26T19:04:45.768Z,97252.66
2022-07-26T19:07:12.344Z,97251.28
2022-07-26T19:09:38.873Z,97249.50
2022-07-26T19:12:05.607Z,97245.00
2022-07-26T19:14:32.164Z,97256.66
2022-07-26T19:16:58.745Z,97252.56
2022-07-26T19:19:25.469Z,97264.22
2022-07-26T19:21:52.007Z,97269.47
2022-07-26T19:24:18.746Z,97262.22
2022-07-26T19:26:45.575Z,97280.03
2022-07-26T19:29:12.468Z,97287.63
2022-07-26T19:31:40.429Z,97289.56
2022-07-26T19:34:07.080Z,97296.56
2022-07-26T19:36:33.888Z,97298.22
2022-07-26T19:39:01.301Z,97301.66
2022-07-26T19:41:27.917Z,97300.00
2022-07-26T19:43:54.609Z,97296.78
2022-07-26T19:46:21.240Z,97302.47
2022-07-26T19:48:47.954Z,97306.38
2022-07-26T19:51:14.500Z,97307.44
2022-07-26T19:53:41.048Z,97314.00
2022-07-26T19:56:07.921Z,97318.72
2022-07-26T19:58:34.559Z,97316.06
2022-07-26T20:01:01.176Z,97320.78
2022-07-26T20:03:27.835Z,97321.63
2022-07-26T20:05:56.743Z,97327.38
2022-07-26T20:08:23.323Z,97325.56
2022-07-26T20:10:50.016Z,97322.47
2022-07-26T20:13:16.929Z,97328.41
2022-07-26T20:15:43.637Z,97325.75
2022-07-26T20:18:10.627Z,97328.19
2022-07-26T20:20:37.218Z,97325.75
2022-07-26T20:23:06.031Z,97317.16
2022-07-26T20:25:32.947Z,97320.84
2022-07-26T20:27:59.827Z,97322.91
2022-07-26T20:30:26.492Z,97327.38
2022-07-26T20:32:53.054Z,97328.81
2022-07-26T20:35:19.799Z,97330.63
2022-07-26T20:37:46.387Z,97331.03
2022-07-26T20:40:13.438Z,97326.34
2022-07-26T20:42:44.313Z,97330.19
2022-07-26T20:45:12.817Z,97334.69
2022-07-26T20:47:43.177Z,97331.00
2022-07-26T20:50:11.922Z,97331.41
2022-07-26T20:52:38.610Z,97327.75
2022-07-26T20:55:05.790Z,97328.19
2022-07-26T20:57:32.343Z,97331.44
2022-07-26T20:59:58.907Z,97340.47
2022-07-26T21:02:25.552Z,97345.34
2022-07-26T21:04:52.377Z,97338.41
2022-07-26T21:07:18.967Z,97341.84
2022-07-26T21:09:45.539Z,97343.69
2022-07-26T21:12:12.069Z,97347.38
2022-07-26T21:14:38.620Z,97347.56
2022-07-26T21:17:10.998Z,97350.22
2022-07-26T21:19:38.446Z,97353.50
2022-07-26T21:22:05.042Z,97349.81
2022-07-26T21:24:31.599Z,97341.25
2022-07-26T21:26:58.168Z,97349.78
2022-07-26T21:29:24.730Z,97347.34
2022-07-26T21:31:51.277Z,97343.69
2022-07-26T21:34:18.025Z,97346.56
2022-07-26T21:36:44.701Z,97351.44
2022-07-26T21:39:11.695Z,97353.28
2022-07-26T21:41:38.601Z,97351.88
2022-07-26T21:44:05.324Z,97357.56
2022-07-26T21:46:31.884Z,97357.19
2022-07-26T21:48:58.509Z,97351.25
2022-07-26T21:51:25.075Z,97350.22
2022-07-26T21:53:51.643Z,97357.19
2022-07-26T21:56:18.301Z,97364.31
2022-07-26T21:58:44.924Z,97366.53
2022-07-26T22:01:14.090Z,97365.94
2022-07-26T22:03:41.481Z,97368.81
2022-07-26T22:06:09.237Z,97371.88
2022-07-26T22:08:36.059Z,97371.47
2022-07-26T22:11:03.870Z,97360.44
2022-07-26T22:13:30.921Z,97373.09
2022-07-26T22:15:57.625Z,97366.97
2022-07-26T22:18:24.241Z,97365.72
2022-07-26T22:20:50.804Z,97362.69
2022-07-26T22:23:18.678Z,97371.88
2022-07-26T22:25:45.677Z,97362.88
2022-07-26T22:28:12.659Z,97359.38
2022-07-26T22:30:45.367Z,97372.84
2022-07-26T22:33:11.978Z,97371.41
2022-07-26T22:35:38.768Z,97372.03
2022-07-26T22:38:07.783Z,97368.69
2022-07-26T22:40:34.868Z,97371.00
2022-07-26T22:43:01.493Z,97368.56
2022-07-26T22:45:29.235Z,97377.94
2022-07-26T22:47:56.745Z,97367.72
2022-07-26T22:50:24.812Z,97373.44
2022-07-26T22:52:51.918Z,97375.28
2022-07-26T22:55:18.537Z,97374.44
2022-07-26T22:57:45.256Z,97368.09
2022-07-26T23:00:14.072Z,97366.09
2022-07-26T23:02:40.713Z,97372.03
2022-07-26T23:05:08.229Z,97377.94
2022-07-26T23:07:35.465Z,97373.47
2022-07-26T23:10:02.491Z,97374.28
2022-07-26T23:12:29.147Z,97374.72
2022-07-26T23:17:36.211Z,97381.25
2022-07-26T23:20:06.404Z,97377.16
2022-07-26T23:22:33.487Z,97380.03
2022-07-26T23:25:00.091Z,97375.34
2022-07-26T23:27:26.656Z,97379.22
2022-07-26T23:29:53.271Z,97376.19
2022-07-26T23:32:19.798Z,97391.50
2022-07-26T23:34:46.340Z,97378.84
2022-07-26T23:37:12.875Z,97377.81
2022-07-26T23:39:39.473Z,97382.31
2022-07-26T23:42:07.189Z,97383.34
2022-07-26T23:44:34.159Z,97380.84
2022-07-26T23:47:00.962Z,97384.97
2022-07-26T23:49:27.632Z,97379.03
2022-07-26T23:51:54.351Z,97381.69
2022-07-26T23:54:20.871Z,97381.28
2022-07-26T23:56:47.575Z,97376.38
2022-07-26T23:59:14.716Z,97381.09
